sensor_id;sensor_type;location;lat;lon;timestamp;temperature;humidity
38209;DHT22;24016;52.102;11.584;2023-04-01T00:01:46;8.50;99.90
38209;DHT22;24016;52.102;11.584;2023-04-01T00:04:11;8.50;99.90
38209;DHT22;24016;52.102;11.584;2023-04-01T00:06:37;8.40;99.90
38209;DHT22;24016;52.102;11.584;2023-04-01T00:09:02;8.40;99.90
38209;DHT22;24016;52.102;11.584;2023-04-01T00:11:28;8.40;99.90
38209;DHT22;24016;52.102;11.584;2023-04-01T00:13:55;8.40;99.90
38209;DHT22;24016;52.102;11.584;2023-04-01T00:16:21;8.30;99.90
38209;DHT22;24016;52.102;11.584;2023-04-01T00:18:46;8.30;99.90
38209;DHT22;24016;52.102;11.584;2023-04-01T00:21:12;8.30;99.90
38209;DHT22;24016;52.102;11.584;2023-04-01T00:23:38;8.30;99.90
38209;DHT22;24016;52.102;11.584;2023-04-01T00:26:03;8.40;99.90
38209;DHT22;24016;52.102;11.584;2023-04-01T00:28:30;8.40;99.90
38209;DHT22;24016;52.102;11.584;2023-04-01T00:30:55;8.40;99.90
38209;DHT22;24016;52.102;11.584;2023-04-01T00:33:21;8.40;99.90
38209;DHT22;24016;52.102;11.584;2023-04-01T00:35:47;8.40;99.90
38209;DHT22;24016;52.102;11.584;2023-04-01T00:38:12;8.40;99.90
38209;DHT22;24016;52.102;11.584;2023-04-01T00:40:43;8.40;99.90
38209;DHT22;24016;52.102;11.584;2023-04-01T00:43:13;8.40;99.90
38209;DHT22;24016;52.102;11.584;2023-04-01T00:45:41;8.40;99.90
38209;DHT22;24016;52.102;11.584;2023-04-01T00:48:28;8.40;99.90
38209;DHT22;24016;52.102;11.584;2023-04-01T00:50:58;8.40;99.90
38209;DHT22;24016;52.102;11.584;2023-04-01T00:53:25;8.40;99.90
38209;DHT22;24016;52.102;11.584;2023-04-01T00:55:58;8.50;99.90
38209;DHT22;24016;52.102;11.584;2023-04-01T00:58:25;8.30;99.90
38209;DHT22;24016;52.102;11.584;2023-04-01T01:00:54;8.40;99.90
38209;DHT22;24016;52.102;11.584;2023-04-01T01:03:20;8.40;99.90
38209;DHT22;24016;52.102;11.584;2023-04-01T01:09:20;8.40;99.90
38209;DHT22;24016;52.102;11.584;2023-04-01T01:14:48;8.30;99.90
38209;DHT22;24016;52.102;11.584;2023-04-01T01:20:27;8.30;99.90
38209;DHT22;24016;52.102;11.584;2023-04-01T01:23:29;8.20;99.90
38209;DHT22;24016;52.102;11.584;2023-04-01T01:29:11;8.10;99.90
38209;DHT22;24016;52.102;11.584;2023-04-01T01:32:13;8.10;99.90
38209;DHT22;24016;52.102;11.584;2023-04-01T01:34:55;8.10;99.90
38209;DHT22;24016;52.102;11.584;2023-04-01T01:37:25;8.10;99.90
38209;DHT22;24016;52.102;11.584;2023-04-01T01:39:59;8.10;99.90
38209;DHT22;24016;52.102;11.584;2023-04-01T01:42:27;8.00;99.90
38209;DHT22;24016;52.102;11.584;2023-04-01T01:44:56;8.00;99.90
38209;DHT22;24016;52.102;11.584;2023-04-01T01:47:22;8.00;99.90
38209;DHT22;24016;52.102;11.584;2023-04-01T01:49:49;8.00;99.90
38209;DHT22;24016;52.102;11.584;2023-04-01T01:52:16;8.00;99.90
38209;DHT22;24016;52.102;11.584;2023-04-01T01:54:53;8.00;99.90
38209;DHT22;24016;52.102;11.584;2023-04-01T01:57:23;8.00;99.90
38209;DHT22;24016;52.102;11.584;2023-04-01T01:59:51;8.00;99.90
38209;DHT22;24016;52.102;11.584;2023-04-01T02:02:18;8.00;99.90
38209;DHT22;24016;52.102;11.584;2023-04-01T02:04:45;8.00;99.90
38209;DHT22;24016;52.102;11.584;2023-04-01T02:07:15;7.90;99.90
38209;DHT22;24016;52.102;11.584;2023-04-01T02:09:42;7.90;99.90
38209;DHT22;24016;52.102;11.584;2023-04-01T02:12:10;7.90;99.90
38209;DHT22;24016;52.102;11.584;2023-04-01T02:14:45;7.90;99.90
38209;DHT22;24016;52.102;11.584;2023-04-01T02:17:16;7.90;99.90
38209;DHT22;24016;52.102;11.584;2023-04-01T02:19:47;8.00;99.90
38209;DHT22;24016;52.102;11.584;2023-04-01T02:22:18;7.90;99.90
38209;DHT22;24016;52.102;11.584;2023-04-01T02:24:45;8.00;99.90
38209;DHT22;24016;52.102;11.584;2023-04-01T02:27:11;8.00;99.90
38209;DHT22;24016;52.102;11.584;2023-04-01T02:29:37;8.00;99.90
38209;DHT22;24016;52.102;11.584;2023-04-01T02:32:04;7.90;99.90
38209;DHT22;24016;52.102;11.584;2023-04-01T02:34:31;7.90;99.90
38209;DHT22;24016;52.102;11.584;2023-04-01T02:36:58;7.90;99.90
38209;DHT22;24016;52.102;11.584;2023-04-01T02:39:25;7.90;99.90
38209;DHT22;24016;52.102;11.584;2023-04-01T02:41:52;7.90;99.90
38209;DHT22;24016;52.102;11.584;2023-04-01T02:44:18;7.90;99.90
38209;DHT22;24016;52.102;11.584;2023-04-01T02:46:44;7.90;99.90
38209;DHT22;24016;52.102;11.584;2023-04-01T02:49:10;7.90;99.90
38209;DHT22;24016;52.102;11.584;2023-04-01T02:51:36;7.90;99.90
38209;DHT22;24016;52.102;11.584;2023-04-01T02:54:01;7.90;99.90
38209;DHT22;24016;52.102;11.584;2023-04-01T02:56:27;7.90;99.90
38209;DHT22;24016;52.102;11.584;2023-04-01T02:58:53;7.90;99.90
38209;DHT22;24016;52.102;11.584;2023-04-01T03:01:20;7.90;99.90
38209;DHT22;24016;52.102;11.584;2023-04-01T03:03:45;7.90;99.90
38209;DHT22;24016;52.102;11.584;2023-04-01T03:06:13;7.90;99.90
38209;DHT22;24016;52.102;11.584;2023-04-01T03:08:39;7.80;99.90
38209;DHT22;24016;52.102;11.584;2023-04-01T03:11:05;7.80;99.90
38209;DHT22;24016;52.102;11.584;2023-04-01T03:13:31;7.80;99.90
38209;DHT22;24016;52.102;11.584;2023-04-01T03:15:56;7.80;99.90
38209;DHT22;24016;52.102;11.584;2023-04-01T03:18:22;7.90;99.90
38209;DHT22;24016;52.102;11.584;2023-04-01T03:20:48;7.80;99.90
38209;DHT22;24016;52.102;11.584;2023-04-01T03:23:13;7.80;99.90
38209;DHT22;24016;52.102;11.584;2023-04-01T03:25:39;7.80;99.90
38209;DHT22;24016;52.102;11.584;2023-04-01T03:28:05;7.80;99.90
38209;DHT22;24016;52.102;11.584;2023-04-01T03:30:30;7.70;99.90
38209;DHT22;24016;52.102;11.584;2023-04-01T03:32:57;7.70;99.90
38209;DHT22;24016;52.102;11.584;2023-04-01T03:35:23;7.80;99.90
38209;DHT22;24016;52.102;11.584;2023-04-01T03:37:50;7.80;99.90
38209;DHT22;24016;52.102;11.584;2023-04-01T03:40:16;7.70;99.90
38209;DHT22;24016;52.102;11.584;2023-04-01T03:42:41;7.70;99.90
38209;DHT22;24016;52.102;11.584;2023-04-01T03:45:07;7.80;99.90
38209;DHT22;24016;52.102;11.584;2023-04-01T03:47:33;7.70;99.90
38209;DHT22;24016;52.102;11.584;2023-04-01T03:49:59;7.70;99.90
38209;DHT22;24016;52.102;11.584;2023-04-01T03:52:25;7.70;99.90
38209;DHT22;24016;52.102;11.584;2023-04-01T03:54:51;7.80;99.90
38209;DHT22;24016;52.102;11.584;2023-04-01T03:57:16;7.70;99.90
38209;DHT22;24016;52.102;11.584;2023-04-01T03:59:42;7.70;99.90
38209;DHT22;24016;52.102;11.584;2023-04-01T04:02:07;7.70;99.90
38209;DHT22;24016;52.102;11.584;2023-04-01T04:04:33;7.80;99.90
38209;DHT22;24016;52.102;11.584;2023-04-01T04:06:59;7.70;99.90
38209;DHT22;24016;52.102;11.584;2023-04-01T04:09:24;7.70;99.90
38209;DHT22;24016;52.102;11.584;2023-04-01T04:11:50;7.70;99.90
38209;DHT22;24016;52.102;11.584;2023-04-01T04:14:16;7.70;99.90
38209;DHT22;24016;52.102;11.584;2023-04-01T04:16:42;7.70;99.90
38209;DHT22;24016;52.102;11.584;2023-04-01T04:19:07;7.70;99.90
38209;DHT22;24016;52.102;11.584;2023-04-01T04:21:33;7.70;99.90
38209;DHT22;24016;52.102;11.584;2023-04-01T04:23:59;7.70;99.90
38209;DHT22;24016;52.102;11.584;2023-04-01T04:26:26;7.60;99.90
38209;DHT22;24016;52.102;11.584;2023-04-01T04:28:51;7.70;99.90
38209;DHT22;24016;52.102;11.584;2023-04-01T04:31:22;7.70;99.90
38209;DHT22;24016;52.102;11.584;2023-04-01T04:33:48;7.70;99.90
38209;DHT22;24016;52.102;11.584;2023-04-01T04:36:14;7.70;99.90
38209;DHT22;24016;52.102;11.584;2023-04-01T04:38:39;7.60;99.90
38209;DHT22;24016;52.102;11.584;2023-04-01T04:41:17;7.70;99.90
38209;DHT22;24016;52.102;11.584;2023-04-01T04:43:52;7.60;99.90
38209;DHT22;24016;52.102;11.584;2023-04-01T04:46:18;7.60;99.90
38209;DHT22;24016;52.102;11.584;2023-04-01T04:48:44;7.60;99.90
38209;DHT22;24016;52.102;11.584;2023-04-01T04:51:13;7.60;99.90
38209;DHT22;24016;52.102;11.584;2023-04-01T04:53:40;7.60;99.90
38209;DHT22;24016;52.102;11.584;2023-04-01T04:56:06;7.60;99.90
38209;DHT22;24016;52.102;11.584;2023-04-01T04:58:31;7.60;99.90
38209;DHT22;24016;52.102;11.584;2023-04-01T05:00:57;7.60;99.90
38209;DHT22;24016;52.102;11.584;2023-04-01T05:03:22;7.60;99.90
38209;DHT22;24016;52.102;11.584;2023-04-01T05:05:52;7.60;99.90
38209;DHT22;24016;52.102;11.584;2023-04-01T05:08:19;7.60;99.90
38209;DHT22;24016;52.102;11.584;2023-04-01T05:10:45;7.60;99.90
38209;DHT22;24016;52.102;11.584;2023-04-01T05:13:11;7.60;99.90
38209;DHT22;24016;52.102;11.584;2023-04-01T05:15:36;7.60;99.90
38209;DHT22;24016;52.102;11.584;2023-04-01T05:18:02;7.60;99.90
38209;DHT22;24016;52.102;11.584;2023-04-01T05:20:28;7.60;99.90
38209;DHT22;24016;52.102;11.584;2023-04-01T05:22:57;7.70;99.90
38209;DHT22;24016;52.102;11.584;2023-04-01T05:25:23;7.70;99.90
38209;DHT22;24016;52.102;11.584;2023-04-01T05:27:49;7.70;99.90
38209;DHT22;24016;52.102;11.584;2023-04-01T05:30:14;7.70;99.90
38209;DHT22;24016;52.102;11.584;2023-04-01T05:32:40;7.70;99.90
38209;DHT22;24016;52.102;11.584;2023-04-01T05:35:06;7.80;99.90
38209;DHT22;24016;52.102;11.584;2023-04-01T05:37:34;7.80;99.90
38209;DHT22;24016;52.102;11.584;2023-04-01T05:39:59;7.80;99.90
38209;DHT22;24016;52.102;11.584;2023-04-01T05:42:25;7.80;99.90
38209;DHT22;24016;52.102;11.584;2023-04-01T05:44:51;7.90;99.90
38209;DHT22;24016;52.102;11.584;2023-04-01T05:47:16;7.90;99.90
38209;DHT22;24016;52.102;11.584;2023-04-01T05:49:42;7.90;99.90
38209;DHT22;24016;52.102;11.584;2023-04-01T05:52:07;8.00;99.90
38209;DHT22;24016;52.102;11.584;2023-04-01T05:54:33;8.00;99.90
38209;DHT22;24016;52.102;11.584;2023-04-01T05:56:59;8.00;99.90
38209;DHT22;24016;52.102;11.584;2023-04-01T05:59:24;8.10;99.90
38209;DHT22;24016;52.102;11.584;2023-04-01T06:01:50;8.10;99.90
38209;DHT22;24016;52.102;11.584;2023-04-01T06:04:17;8.20;99.90
38209;DHT22;24016;52.102;11.584;2023-04-01T06:06:43;8.30;99.90
38209;DHT22;24016;52.102;11.584;2023-04-01T06:09:29;8.40;99.90
38209;DHT22;24016;52.102;11.584;2023-04-01T06:17:41;8.70;99.90
38209;DHT22;24016;52.102;11.584;2023-04-01T06:20:35;8.70;99.90
38209;DHT22;24016;52.102;11.584;2023-04-01T06:23:20;8.80;99.90
38209;DHT22;24016;52.102;11.584;2023-04-01T06:34:25;8.70;99.90
38209;DHT22;24016;52.102;11.584;2023-04-01T06:43:02;8.70;99.90
38209;DHT22;24016;52.102;11.584;2023-04-01T06:52:02;8.80;99.90
38209;DHT22;24016;52.102;11.584;2023-04-01T06:54:37;8.80;99.90
38209;DHT22;24016;52.102;11.584;2023-04-01T06:57:23;8.90;99.90
38209;DHT22;24016;52.102;11.584;2023-04-01T06:59:49;8.80;99.90
38209;DHT22;24016;52.102;11.584;2023-04-01T07:02:35;8.90;99.90
38209;DHT22;24016;52.102;11.584;2023-04-01T07:05:04;8.90;99.90
38209;DHT22;24016;52.102;11.584;2023-04-01T07:10:35;9.10;99.90
38209;DHT22;24016;52.102;11.584;2023-04-01T07:13:06;9.10;99.90
38209;DHT22;24016;52.102;11.584;2023-04-01T07:15:37;9.20;99.90
38209;DHT22;24016;52.102;11.584;2023-04-01T07:18:16;9.30;99.90
38209;DHT22;24016;52.102;11.584;2023-04-01T07:20:43;9.30;99.90
38209;DHT22;24016;52.102;11.584;2023-04-01T07:23:21;9.30;99.90
38209;DHT22;24016;52.102;11.584;2023-04-01T07:25:52;9.30;99.90
38209;DHT22;24016;52.102;11.584;2023-04-01T07:28:21;9.20;99.90
38209;DHT22;24016;52.102;11.584;2023-04-01T07:34:20;9.30;99.90
38209;DHT22;24016;52.102;11.584;2023-04-01T07:37:00;9.40;99.90
38209;DHT22;24016;52.102;11.584;2023-04-01T07:42:15;9.60;99.90
38209;DHT22;24016;52.102;11.584;2023-04-01T07:50:29;10.00;99.90
38209;DHT22;24016;52.102;11.584;2023-04-01T07:56:02;10.20;99.90
38209;DHT22;24016;52.102;11.584;2023-04-01T07:58:45;10.30;99.90
38209;DHT22;24016;52.102;11.584;2023-04-01T08:09:42;10.20;99.90
38209;DHT22;24016;52.102;11.584;2023-04-01T08:12:31;10.30;99.90
38209;DHT22;24016;52.102;11.584;2023-04-01T08:15:20;10.40;99.90
38209;DHT22;24016;52.102;11.584;2023-04-01T08:20:34;10.60;99.90
38209;DHT22;24016;52.102;11.584;2023-04-01T08:23:28;10.90;99.90
38209;DHT22;24016;52.102;11.584;2023-04-01T08:26:37;11.20;99.90
38209;DHT22;24016;52.102;11.584;2023-04-01T08:29:17;11.60;99.90
38209;DHT22;24016;52.102;11.584;2023-04-01T08:32:08;12.00;99.90
38209;DHT22;24016;52.102;11.584;2023-04-01T08:34:40;12.50;99.90
38209;DHT22;24016;52.102;11.584;2023-04-01T08:37:28;12.90;99.90
38209;DHT22;24016;52.102;11.584;2023-04-01T08:40:25;13.10;99.90
38209;DHT22;24016;52.102;11.584;2023-04-01T08:46:41;13.50;99.90
38209;DHT22;24016;52.102;11.584;2023-04-01T08:49:45;13.30;99.90
38209;DHT22;24016;52.102;11.584;2023-04-01T08:58:37;12.30;99.90
38209;DHT22;24016;52.102;11.584;2023-04-01T09:06:35;12.20;99.90
38209;DHT22;24016;52.102;11.584;2023-04-01T09:20:57;13.00;99.90
38209;DHT22;24016;52.102;11.584;2023-04-01T09:23:52;13.20;99.90
38209;DHT22;24016;52.102;11.584;2023-04-01T09:26:40;13.70;99.90
38209;DHT22;24016;52.102;11.584;2023-04-01T09:29:33;14.40;99.90
38209;DHT22;24016;52.102;11.584;2023-04-01T09:32:42;15.10;99.90
38209;DHT22;24016;52.102;11.584;2023-04-01T09:35:28;15.80;99.90
38209;DHT22;24016;52.102;11.584;2023-04-01T09:43:42;16.40;99.90
38209;DHT22;24016;52.102;11.584;2023-04-01T09:49:30;16.30;99.90
38209;DHT22;24016;52.102;11.584;2023-04-01T09:52:25;16.10;99.90
38209;DHT22;24016;52.102;11.584;2023-04-01T09:58:03;15.60;99.90
38209;DHT22;24016;52.102;11.584;2023-04-01T10:06:20;15.90;99.90
38209;DHT22;24016;52.102;11.584;2023-04-01T10:12:13;15.70;99.90
38209;DHT22;24016;52.102;11.584;2023-04-01T10:14:50;15.70;99.90
38209;DHT22;24016;52.102;11.584;2023-04-01T10:17:41;15.90;99.90
38209;DHT22;24016;52.102;11.584;2023-04-01T10:20:55;15.80;99.90
38209;DHT22;24016;52.102;11.584;2023-04-01T10:24:00;15.70;99.90
38209;DHT22;24016;52.102;11.584;2023-04-01T10:29:47;16.00;99.90
38209;DHT22;24016;52.102;11.584;2023-04-01T10:32:45;16.10;99.90
38209;DHT22;24016;52.102;11.584;2023-04-01T10:38:35;16.50;99.90
38209;DHT22;24016;52.102;11.584;2023-04-01T10:52:49;16.20;99.90
38209;DHT22;24016;52.102;11.584;2023-04-01T10:55:48;16.30;99.90
38209;DHT22;24016;52.102;11.584;2023-04-01T10:58:45;16.30;99.90
38209;DHT22;24016;52.102;11.584;2023-04-01T11:01:48;16.20;99.90
38209;DHT22;24016;52.102;11.584;2023-04-01T11:04:36;15.70;99.90
38209;DHT22;24016;52.102;11.584;2023-04-01T11:10:56;15.50;99.90
38209;DHT22;24016;52.102;11.584;2023-04-01T11:13:47;15.30;99.90
38209;DHT22;24016;52.102;11.584;2023-04-01T11:19:36;15.50;99.90
38209;DHT22;24016;52.102;11.584;2023-04-01T11:22:43;15.60;99.90
38209;DHT22;24016;52.102;11.584;2023-04-01T11:28:20;16.40;99.90
38209;DHT22;24016;52.102;11.584;2023-04-01T11:30:53;16.90;99.90
38209;DHT22;24016;52.102;11.584;2023-04-01T11:33:49;17.00;99.90
38209;DHT22;24016;52.102;11.584;2023-04-01T11:36:20;16.90;99.90
38209;DHT22;24016;52.102;11.584;2023-04-01T11:42:02;16.30;99.90
38209;DHT22;24016;52.102;11.584;2023-04-01T11:44:30;16.00;99.90
38209;DHT22;24016;52.102;11.584;2023-04-01T11:47:28;15.60;99.90
38209;DHT22;24016;52.102;11.584;2023-04-01T11:50:20;15.10;99.90
38209;DHT22;24016;52.102;11.584;2023-04-01T11:53:14;15.10;99.90
38209;DHT22;24016;52.102;11.584;2023-04-01T12:01:24;15.00;99.90
38209;DHT22;24016;52.102;11.584;2023-04-01T12:04:11;14.80;99.90
38209;DHT22;24016;52.102;11.584;2023-04-01T12:12:42;14.10;99.90
38209;DHT22;24016;52.102;11.584;2023-04-01T12:18:12;14.10;99.90
38209;DHT22;24016;52.102;11.584;2023-04-01T12:20:49;13.90;99.90
38209;DHT22;24016;52.102;11.584;2023-04-01T12:29:05;13.50;99.90
38209;DHT22;24016;52.102;11.584;2023-04-01T12:34:53;13.50;99.90
38209;DHT22;24016;52.102;11.584;2023-04-01T12:37:47;13.50;99.90
38209;DHT22;24016;52.102;11.584;2023-04-01T12:43:13;13.60;99.90
38209;DHT22;24016;52.102;11.584;2023-04-01T12:45:53;13.80;99.90
38209;DHT22;24016;52.102;11.584;2023-04-01T12:48:42;14.00;99.90
38209;DHT22;24016;52.102;11.584;2023-04-01T13:00:09;15.10;99.90
38209;DHT22;24016;52.102;11.584;2023-04-01T13:03:01;15.00;99.90
38209;DHT22;24016;52.102;11.584;2023-04-01T13:08:44;14.60;99.90
38209;DHT22;24016;52.102;11.584;2023-04-01T13:11:25;14.30;99.90
38209;DHT22;24016;52.102;11.584;2023-04-01T13:16:52;14.10;99.90
38209;DHT22;24016;52.102;11.584;2023-04-01T13:19:25;14.10;99.90
38209;DHT22;24016;52.102;11.584;2023-04-01T13:22:07;14.00;99.90
38209;DHT22;24016;52.102;11.584;2023-04-01T13:29:44;13.90;99.90
38209;DHT22;24016;52.102;11.584;2023-04-01T13:32:24;14.00;99.90
38209;DHT22;24016;52.102;11.584;2023-04-01T13:37:51;14.20;99.90
38209;DHT22;24016;52.102;11.584;2023-04-01T13:40:33;14.20;99.90
38209;DHT22;24016;52.102;11.584;2023-04-01T13:43:19;14.10;99.90
38209;DHT22;24016;52.102;11.584;2023-04-01T13:51:25;13.70;99.90
38209;DHT22;24016;52.102;11.584;2023-04-01T13:56:55;13.20;99.90
38209;DHT22;24016;52.102;11.584;2023-04-01T14:08:03;13.30;99.90
38209;DHT22;24016;52.102;11.584;2023-04-01T14:10:49;13.00;99.90
38209;DHT22;24016;52.102;11.584;2023-04-01T14:19:30;12.50;99.90
38209;DHT22;24016;52.102;11.584;2023-04-01T14:25:10;12.30;99.90
38209;DHT22;24016;52.102;11.584;2023-04-01T14:30:27;11.50;99.90
38209;DHT22;24016;52.102;11.584;2023-04-01T14:36:09;11.10;99.90
38209;DHT22;24016;52.102;11.584;2023-04-01T14:39:10;10.80;99.90
38209;DHT22;24016;52.102;11.584;2023-04-01T14:42:08;10.40;99.90
38209;DHT22;24016;52.102;11.584;2023-04-01T14:47:39;10.00;99.90
38209;DHT22;24016;52.102;11.584;2023-04-01T14:50:26;9.70;99.90
38209;DHT22;24016;52.102;11.584;2023-04-01T14:55:55;9.10;99.90
38209;DHT22;24016;52.102;11.584;2023-04-01T14:58:23;9.00;99.90
38209;DHT22;24016;52.102;11.584;2023-04-01T15:06:56;8.70;99.90
38209;DHT22;24016;52.102;11.584;2023-04-01T15:10:02;8.50;99.90
38209;DHT22;24016;52.102;11.584;2023-04-01T15:12:59;8.50;99.90
38209;DHT22;24016;52.102;11.584;2023-04-01T15:15:59;8.50;99.90
38209;DHT22;24016;52.102;11.584;2023-04-01T15:18:49;8.40;99.90
38209;DHT22;24016;52.102;11.584;2023-04-01T15:21:38;8.40;99.90
38209;DHT22;24016;52.102;11.584;2023-04-01T15:24:24;8.20;99.90
38209;DHT22;24016;52.102;11.584;2023-04-01T15:27:22;8.20;99.90
38209;DHT22;24016;52.102;11.584;2023-04-01T15:30:30;8.20;99.90
38209;DHT22;24016;52.102;11.584;2023-04-01T15:33:36;8.10;99.90
38209;DHT22;24016;52.102;11.584;2023-04-01T15:38:39;8.00;99.90
38209;DHT22;24016;52.102;11.584;2023-04-01T15:41:15;7.90;99.90
38209;DHT22;24016;52.102;11.584;2023-04-01T15:43:43;7.90;99.90
38209;DHT22;24016;52.102;11.584;2023-04-01T15:46:19;7.90;99.90
38209;DHT22;24016;52.102;11.584;2023-04-01T15:54:54;7.80;99.90
38209;DHT22;24016;52.102;11.584;2023-04-01T15:57:32;7.80;99.90
38209;DHT22;24016;52.102;11.584;2023-04-01T16:00:21;7.60;99.90
38209;DHT22;24016;52.102;11.584;2023-04-01T16:02:51;7.60;99.90
38209;DHT22;24016;52.102;11.584;2023-04-01T16:10:58;7.40;99.90
38209;DHT22;24016;52.102;11.584;2023-04-01T16:13:46;7.40;99.90
38209;DHT22;24016;52.102;11.584;2023-04-01T16:19:36;7.50;99.90
38209;DHT22;24016;52.102;11.584;2023-04-01T16:24:56;7.30;99.90
38209;DHT22;24016;52.102;11.584;2023-04-01T16:27:29;7.30;99.90
38209;DHT22;24016;52.102;11.584;2023-04-01T16:32:53;7.30;99.90
38209;DHT22;24016;52.102;11.584;2023-04-01T16:35:47;7.30;99.90
38209;DHT22;24016;52.102;11.584;2023-04-01T16:41:10;7.20;99.90
38209;DHT22;24016;52.102;11.584;2023-04-01T16:43:53;7.20;99.90
38209;DHT22;24016;52.102;11.584;2023-04-01T16:51:44;7.00;99.90
38209;DHT22;24016;52.102;11.584;2023-04-01T16:54:22;6.90;99.90
38209;DHT22;24016;52.102;11.584;2023-04-01T16:57:03;6.80;99.90
38209;DHT22;24016;52.102;11.584;2023-04-01T16:59:58;6.80;99.90
38209;DHT22;24016;52.102;11.584;2023-04-01T17:02:30;6.70;99.90
38209;DHT22;24016;52.102;11.584;2023-04-01T17:05:01;6.60;99.90
38209;DHT22;24016;52.102;11.584;2023-04-01T17:10:29;6.30;99.90
38209;DHT22;24016;52.102;11.584;2023-04-01T17:13:22;6.50;99.90
38209;DHT22;24016;52.102;11.584;2023-04-01T17:16:14;6.60;99.90
38209;DHT22;24016;52.102;11.584;2023-04-01T17:18:56;6.40;99.90
38209;DHT22;24016;52.102;11.584;2023-04-01T17:24:45;6.50;99.90
38209;DHT22;24016;52.102;11.584;2023-04-01T17:27:35;6.40;99.90
38209;DHT22;24016;52.102;11.584;2023-04-01T17:30:21;6.50;99.90
38209;DHT22;24016;52.102;11.584;2023-04-01T17:33:14;6.40;99.90
38209;DHT22;24016;52.102;11.584;2023-04-01T17:38:56;6.30;99.90
38209;DHT22;24016;52.102;11.584;2023-04-01T17:41:42;6.20;99.90
38209;DHT22;24016;52.102;11.584;2023-04-01T17:47:08;6.30;99.90
38209;DHT22;24016;52.102;11.584;2023-04-01T17:52:41;6.30;99.90
38209;DHT22;24016;52.102;11.584;2023-04-01T17:55:26;6.00;99.90
38209;DHT22;24016;52.102;11.584;2023-04-01T17:58:03;6.00;99.90
38209;DHT22;24016;52.102;11.584;2023-04-01T18:00:39;6.00;99.90
38209;DHT22;24016;52.102;11.584;2023-04-01T18:11:25;5.90;99.90
38209;DHT22;24016;52.102;11.584;2023-04-01T18:16:54;5.70;99.90
38209;DHT22;24016;52.102;11.584;2023-04-01T18:22:21;5.70;99.90
38209;DHT22;24016;52.102;11.584;2023-04-01T18:25:20;5.70;99.90
38209;DHT22;24016;52.102;11.584;2023-04-01T18:31:06;5.60;99.90
38209;DHT22;24016;52.102;11.584;2023-04-01T18:36:16;5.60;99.90
38209;DHT22;24016;52.102;11.584;2023-04-01T18:39:02;5.50;99.90
38209;DHT22;24016;52.102;11.584;2023-04-01T18:44:25;5.60;99.90
38209;DHT22;24016;52.102;11.584;2023-04-01T18:47:05;5.60;99.90
38209;DHT22;24016;52.102;11.584;2023-04-01T18:52:45;5.20;99.90
38209;DHT22;24016;52.102;11.584;2023-04-01T18:57:51;5.10;99.90
38209;DHT22;24016;52.102;11.584;2023-04-01T19:00:26;5.10;99.90
38209;DHT22;24016;52.102;11.584;2023-04-01T19:03:02;5.10;99.90
38209;DHT22;24016;52.102;11.584;2023-04-01T19:05:40;5.10;99.90
38209;DHT22;24016;52.102;11.584;2023-04-01T19:08:33;5.10;99.90
38209;DHT22;24016;52.102;11.584;2023-04-01T19:11:15;5.20;99.90
38209;DHT22;24016;52.102;11.584;2023-04-01T19:14:16;5.00;99.90
38209;DHT22;24016;52.102;11.584;2023-04-01T19:17:05;5.00;99.90
38209;DHT22;24016;52.102;11.584;2023-04-01T19:19:54;5.00;99.90
38209;DHT22;24016;52.102;11.584;2023-04-01T19:31:50;5.00;99.90
38209;DHT22;24016;52.102;11.584;2023-04-01T19:37:11;4.70;99.90
38209;DHT22;24016;52.102;11.584;2023-04-01T19:40:17;4.80;99.90
38209;DHT22;24016;52.102;11.584;2023-04-01T19:42:54;4.80;99.90
38209;DHT22;24016;52.102;11.584;2023-04-01T19:45:36;4.80;99.90
38209;DHT22;24016;52.102;11.584;2023-04-01T19:50:51;4.70;99.90
38209;DHT22;24016;52.102;11.584;2023-04-01T19:53:43;4.60;99.90
38209;DHT22;24016;52.102;11.584;2023-04-01T19:56:23;4.60;99.90
38209;DHT22;24016;52.102;11.584;2023-04-01T20:01:53;4.60;99.90
38209;DHT22;24016;52.102;11.584;2023-04-01T20:04:36;4.60;99.90
38209;DHT22;24016;52.102;11.584;2023-04-01T20:07:17;4.60;99.90
38209;DHT22;24016;52.102;11.584;2023-04-01T20:10:13;4.50;99.90
38209;DHT22;24016;52.102;11.584;2023-04-01T20:12:57;4.40;99.90
38209;DHT22;24016;52.102;11.584;2023-04-01T20:15:45;4.40;99.90
38209;DHT22;24016;52.102;11.584;2023-04-01T20:18:23;4.30;99.90
38209;DHT22;24016;52.102;11.584;2023-04-01T20:21:06;4.30;99.90
38209;DHT22;24016;52.102;11.584;2023-04-01T20:23:46;4.20;99.90
38209;DHT22;24016;52.102;11.584;2023-04-01T20:26:20;4.10;99.90
38209;DHT22;24016;52.102;11.584;2023-04-01T20:32:04;4.20;99.90
38209;DHT22;24016;52.102;11.584;2023-04-01T20:34:50;4.10;99.90
38209;DHT22;24016;52.102;11.584;2023-04-01T20:37:35;4.20;99.90
38209;DHT22;24016;52.102;11.584;2023-04-01T20:40:31;4.10;99.90
38209;DHT22;24016;52.102;11.584;2023-04-01T20:57:38;4.00;99.90
38209;DHT22;24016;52.102;11.584;2023-04-01T21:00:34;4.00;99.90
38209;DHT22;24016;52.102;11.584;2023-04-01T21:06:08;3.80;99.90
38209;DHT22;24016;52.102;11.584;2023-04-01T21:09:02;3.80;99.90
38209;DHT22;24016;52.102;11.584;2023-04-01T21:11:44;3.80;99.90
38209;DHT22;24016;52.102;11.584;2023-04-01T21:14:42;3.80;99.90
38209;DHT22;24016;52.102;11.584;2023-04-01T21:17:33;3.80;99.90
38209;DHT22;24016;52.102;11.584;2023-04-01T21:20:18;3.80;99.90
38209;DHT22;24016;52.102;11.584;2023-04-01T21:23:03;3.80;99.90
38209;DHT22;24016;52.102;11.584;2023-04-01T21:26:09;3.80;99.90
38209;DHT22;24016;52.102;11.584;2023-04-01T21:28:56;3.70;99.90
38209;DHT22;24016;52.102;11.584;2023-04-01T21:31:51;3.70;99.90
38209;DHT22;24016;52.102;11.584;2023-04-01T21:34:37;3.70;99.90
38209;DHT22;24016;52.102;11.584;2023-04-01T21:40:24;3.50;99.90
38209;DHT22;24016;52.102;11.584;2023-04-01T21:43:17;3.50;99.90
38209;DHT22;24016;52.102;11.584;2023-04-01T21:48:56;3.50;99.90
38209;DHT22;24016;52.102;11.584;2023-04-01T22:00:24;3.50;99.90
38209;DHT22;24016;52.102;11.584;2023-04-01T22:05:51;3.40;99.90
38209;DHT22;24016;52.102;11.584;2023-04-01T22:08:45;3.40;99.90
38209;DHT22;24016;52.102;11.584;2023-04-01T22:11:34;3.30;99.90
38209;DHT22;24016;52.102;11.584;2023-04-01T22:14:24;3.20;99.90
38209;DHT22;24016;52.102;11.584;2023-04-01T22:19:40;3.30;99.90
38209;DHT22;24016;52.102;11.584;2023-04-01T22:22:25;3.30;99.90
38209;DHT22;24016;52.102;11.584;2023-04-01T22:27:55;3.30;99.90
38209;DHT22;24016;52.102;11.584;2023-04-01T22:30:28;3.30;99.90
38209;DHT22;24016;52.102;11.584;2023-04-01T22:33:05;3.30;99.90
38209;DHT22;24016;52.102;11.584;2023-04-01T22:38:20;3.20;99.90
38209;DHT22;24016;52.102;11.584;2023-04-01T22:41:55;3.20;99.90
38209;DHT22;24016;52.102;11.584;2023-04-01T22:43:57;3.20;99.90
38209;DHT22;24016;52.102;11.584;2023-04-01T22:49:54;3.10;99.90